Time;durP1;ratioP1;P1;durP2;ratioP2;P2;SDS_P1;SDS_P2;PMS_P1;PMS_P2;Temp;Humidity;BMP_temperature;BMP_pressure;BME280_temperature;BME280_humidity;BME280_pressure;Samples;Min_cycle;Max_cycle;Signal;HPM_P1;HPM_P2
2022/01/23 00:01:49;;;;;;;27.27;20.20;;;-4.60;99.90;;;;;;5077480;28;20411;-72
2022/01/23 00:04:15;;;;;;;25.63;18.73;;;-4.60;99.90;;;;;;5079006;28;20421;-70
2022/01/23 00:06:41;;;;;;;29.63;21.47;;;-2.70;99.90;;;;;;5078710;28;20193;-75
2022/01/23 00:09:07;;;;;;;30.97;21.03;;;-4.90;99.90;;;;;;5078687;28;20186;-70
2022/01/23 00:11:39;;;;;;;34.60;20.73;;;-4.60;99.90;;;;;;5079029;28;20396;-73
2022/01/23 00:19:18;;;;;;;28.00;21.63;;;-2.70;99.90;;;;;;5078308;28;20495;-71
2022/01/23 00:21:45;;;;;;;22.93;19.53;;;-4.20;99.90;;;;;;5078558;28;20475;-70
2022/01/23 00:32:08;;;;;;;28.13;21.20;;;-4.20;99.90;;;;;;5077809;28;20775;-72
2022/01/23 00:34:35;;;;;;;28.23;22.37;;;-3.40;99.90;;;;;;5077200;28;20424;-76
2022/01/23 00:37:01;;;;;;;29.67;22.53;;;-4.50;99.90;;;;;;5077488;28;20168;-71
2022/01/23 00:39:27;;;;;;;36.93;21.87;;;-4.20;99.90;;;;;;5077267;28;20440;-70
2022/01/23 00:41:53;;;;;;;39.93;24.07;;;-4.20;99.90;;;;;;5077175;28;20178;-70
2022/01/23 00:44:19;;;;;;;29.70;23.03;;;-4.10;99.90;;;;;;5077321;28;20166;-70
2022/01/23 00:46:50;;;;;;;33.03;22.57;;;-4.50;99.90;;;;;;5077609;28;20794;-70
2022/01/23 00:49:25;;;;;;;29.40;21.33;;;-5.00;99.90;;;;;;5077600;28;20559;-70
2022/01/23 00:51:52;;;;;;;31.47;24.27;;;-4.90;99.90;;;;;;5078579;28;20398;-71
2022/01/23 00:54:17;;;;;;;30.37;23.20;;;-5.10;99.90;;;;;;5077907;28;20399;-71
2022/01/23 00:56:43;;;;;;;34.00;22.83;;;-4.70;99.90;;;;;;5077701;28;20403;-74
2022/01/23 00:59:09;;;;;;;32.77;23.63;;;-5.10;99.90;;;;;;5077626;28;20580;-74
2022/01/23 01:01:35;;;;;;;29.13;20.93;;;-4.80;99.90;;;;;;5076725;28;20178;-72
2022/01/23 01:04:01;;;;;;;29.50;22.47;;;-4.20;99.90;;;;;;5078174;28;20171;-78
2022/01/23 01:06:28;;;;;;;30.87;22.37;;;-4.00;99.90;;;;;;5077597;28;20198;-79
2022/01/23 01:09:00;;;;;;;32.53;23.33;;;-4.60;99.90;;;;;;5077959;28;20451;-72
2022/01/23 01:30:38;;;;;;;32.37;22.47;;;-3.60;99.90;;;;;;5077353;28;20460;-73
2022/01/23 01:35:39;;;;;;;33.90;24.30;;;-3.80;99.90;;;;;;5078376;28;20430;-75
2022/01/23 01:38:05;;;;;;;35.53;25.47;;;-4.00;99.90;;;;;;5077675;28;20428;-72
2022/01/23 01:40:32;;;;;;;31.53;23.83;;;-3.70;99.90;;;;;;5078938;28;20396;-80
2022/01/23 01:42:57;;;;;;;38.83;25.40;;;-3.60;99.90;;;;;;5078891;28;20187;-79
2022/01/23 01:45:26;;;;;;;37.70;26.97;;;-4.00;99.90;;;;;;5079255;28;20942;-77
2022/01/23 01:47:53;;;;;;;37.23;26.10;;;-4.60;99.90;;;;;;5077804;28;20214;-77
2022/01/23 01:50:20;;;;;;;34.90;25.07;;;-4.60;99.90;;;;;;5078954;28;20909;-78
2022/01/23 01:52:48;;;;;;;38.47;27.10;;;-4.60;99.90;;;;;;5079076;28;20411;-78
2022/01/23 01:55:23;;;;;;;35.90;25.73;;;-4.10;99.90;;;;;;5078790;28;20392;-74
2022/01/23 01:57:53;;;;;;;37.20;25.40;;;-5.30;99.90;;;;;;5078845;28;20834;-78
2022/01/23 02:00:41;;;;;;;37.47;26.10;;;-4.90;99.90;;;;;;5079346;28;20403;-81
2022/01/23 02:08:31;;;;;;;37.23;28.07;;;-4.30;99.90;;;;;;5079890;28;20476;-77
2022/01/23 02:11:07;;;;;;;39.40;28.87;;;-4.60;99.90;;;;;;5079148;28;20404;-78
2022/01/23 02:14:07;;;;;;;39.47;28.90;;;-4.30;99.90;;;;;;5079348;28;20388;-80
2022/01/23 02:56:58;;;;;;;48.90;30.43;;;-4.50;99.90;;;;;;5078301;28;20496;-80
2022/01/23 02:59:28;;;;;;;44.07;29.87;;;-4.60;99.90;;;;;;5079060;28;20396;-78
2022/01/23 03:02:26;;;;;;;43.87;29.70;;;-2.80;99.90;;;;;;5078799;28;20174;-79
2022/01/23 03:04:52;;;;;;;44.43;27.77;;;-4.70;99.90;;;;;;5077943;28;20720;-77
2022/01/23 03:15:25;;;;;;;43.40;30.17;;;-4.10;99.90;;;;;;5077226;28;20753;-79
2022/01/23 03:29:18;;;;;;;45.00;29.67;;;-4.10;99.90;;;;;;5084762;28;20175;-74
2022/01/23 03:34:17;;;;;;;45.07;30.83;;;-4.70;99.90;;;;;;5080963;28;20408;-71
2022/01/23 03:36:44;;;;;;;42.73;30.90;;;-4.80;99.90;;;;;;5080083;28;20404;-71
2022/01/23 03:39:10;;;;;;;44.97;31.10;;;-5.10;99.90;;;;;;5079393;28;20249;-77
2022/01/23 03:41:37;;;;;;;45.80;29.97;;;-4.60;99.90;;;;;;5079739;28;20411;-73
2022/01/23 03:44:05;;;;;;;39.13;27.57;;;-4.90;99.90;;;;;;5079776;28;20206;-75
2022/01/23 03:49:32;;;;;;;48.87;32.60;;;-5.00;99.90;;;;;;5080362;28;20403;-71
2022/01/23 03:52:00;;;;;;;39.50;28.17;;;-5.30;99.90;;;;;;5077369;28;20412;-72
2022/01/23 03:54:27;;;;;;;45.50;32.60;;;-4.80;99.90;;;;;;5078854;28;20834;-71
2022/01/23 03:57:02;;;;;;;40.57;28.03;;;-4.70;99.90;;;;;;5078927;28;20396;-77
2022/01/23 03:59:29;;;;;;;41.20;28.93;;;-4.40;99.90;;;;;;5078395;28;20411;-72
2022/01/23 04:01:55;;;;;;;44.57;32.03;;;-4.30;99.90;;;;;;5077491;28;20439;-74
2022/01/23 04:06:56;;;;;;;39.53;27.37;;;-4.70;99.90;;;;;;5077840;28;20753;-71
2022/01/23 04:09:22;;;;;;;40.13;29.37;;;-5.00;99.90;;;;;;5078100;28;20423;-71
2022/01/23 04:11:48;;;;;;;44.60;29.30;;;-4.80;99.90;;;;;;5078136;28;20163;-75
2022/01/23 04:14:16;;;;;;;45.93;31.20;;;-4.90;99.90;;;;;;5077930;28;20213;-71
2022/01/23 05:00:01;;;;;;;44.23;30.10;;;-4.20;99.90;;;;;;5078190;28;20692;-71
2022/01/23 05:04:55;;;;;;;46.03;30.47;;;-4.00;99.90;;;;;;5077803;28;20578;-70
2022/01/23 05:07:26;;;;;;;44.70;31.67;;;-3.90;99.90;;;;;;5078294;28;20458;-77
2022/01/23 05:09:52;;;;;;;45.40;29.50;;;-4.00;99.90;;;;;;5078826;28;20189;-76
2022/01/23 05:12:25;;;;;;;41.20;31.60;;;-4.10;99.90;;;;;;5079848;28;20170;-76
2022/01/23 05:14:51;;;;;;;46.63;32.13;;;-4.10;99.90;;;;;;5079969;28;20164;-73
2022/01/23 05:17:19;;;;;;;43.60;31.23;;;-4.40;99.90;;;;;;5077370;28;20392;-74
2022/01/23 05:19:45;;;;;;;49.23;34.37;;;-4.10;99.90;;;;;;5077615;28;20179;-71
2022/01/23 05:25:01;;;;;;;44.83;29.13;;;-4.60;99.90;;;;;;5080572;28;20174;-80
2022/01/23 05:27:29;;;;;;;43.63;32.90;;;-4.10;99.90;;;;;;5079447;28;20486;-80
2022/01/23 05:29:57;;;;;;;41.43;28.77;;;-3.90;99.90;;;;;;5080522;28;20164;-81
2022/01/23 05:32:25;;;;;;;45.27;30.93;;;-3.80;99.90;;;;;;5079625;28;20398;-76
2022/01/23 05:34:52;;;;;;;51.37;32.03;;;-4.00;99.90;;;;;;5078397;28;20167;-79
2022/01/23 05:37:17;;;;;;;44.87;30.67;;;-4.00;99.90;;;;;;5080495;28;20167;-80
2022/01/23 05:39:43;;;;;;;43.00;29.13;;;-3.80;99.90;;;;;;5080385;28;20437;-79
2022/01/23 05:42:09;;;;;;;42.63;30.53;;;-4.10;99.90;;;;;;5079006;28;20229;-79
2022/01/23 05:44:37;;;;;;;44.53;33.17;;;-3.70;99.90;;;;;;5080072;28;20186;-82
2022/01/23 05:47:04;;;;;;;43.13;28.70;;;-3.40;99.90;;;;;;5078723;28;20183;-78
2022/01/23 05:49:30;;;;;;;39.77;26.60;;;-4.10;99.90;;;;;;5079681;28;20440;-81
2022/01/23 05:51:56;;;;;;;39.27;28.47;;;-4.20;99.90;;;;;;5080218;28;20174;-80
2022/01/23 05:54:23;;;;;;;44.37;31.37;;;-4.50;99.90;;;;;;5080531;28;20481;-80
2022/01/23 05:56:48;;;;;;;44.70;31.00;;;-4.40;99.90;;;;;;5080087;28;20253;-79
2022/01/23 05:59:16;;;;;;;47.50;30.30;;;-4.50;99.90;;;;;;5079554;28;20426;-80
2022/01/23 06:01:43;;;;;;;45.37;30.60;;;-4.00;99.90;;;;;;5078988;28;20258;-78
2022/01/23 06:04:09;;;;;;;43.30;30.83;;;-3.80;99.90;;;;;;5079892;28;20171;-79
2022/01/23 06:06:35;;;;;;;43.90;31.37;;;-3.90;99.90;;;;;;5079482;28;20451;-77
2022/01/23 06:09:00;;;;;;;44.13;30.80;;;-4.10;99.90;;;;;;5078826;28;20201;-75
2022/01/23 06:11:26;;;;;;;40.07;29.90;;;-4.30;99.90;;;;;;5079227;28;20249;-79
2022/01/23 06:13:52;;;;;;;40.83;27.87;;;-4.50;99.90;;;;;;5079894;28;20178;-81
2022/01/23 06:16:18;;;;;;;39.90;29.63;;;-4.70;99.90;;;;;;5079641;28;20193;-80
2022/01/23 06:18:45;;;;;;;40.97;28.70;;;-4.60;99.90;;;;;;5079174;28;20186;-77
2022/01/23 06:21:19;;;;;;;51.03;32.77;;;-4.60;99.90;;;;;;5079785;28;20165;-78
2022/01/23 06:23:47;;;;;;;48.10;31.37;;;-4.70;99.90;;;;;;5077714;28;20402;-78
2022/01/23 06:26:13;;;;;;;45.87;31.40;;;-4.40;99.90;;;;;;5079193;28;20636;-79
2022/01/23 06:28:50;;;;;;;43.13;29.20;;;-4.60;99.90;;;;;;5078563;28;20400;-79
2022/01/23 06:31:16;;;;;;;49.43;29.60;;;-4.30;99.90;;;;;;5078503;28;20166;-79
2022/01/23 06:33:41;;;;;;;47.17;32.23;;;-3.90;99.90;;;;;;5078602;28;20385;-78
2022/01/23 06:36:08;;;;;;;49.70;29.00;;;-3.60;99.90;;;;;;5078375;28;20174;-77
2022/01/23 06:38:35;;;;;;;43.53;28.97;;;-3.40;99.90;;;;;;5078356;28;20500;-79
2022/01/23 06:41:01;;;;;;;47.43;29.53;;;-3.40;99.90;;;;;;5078299;28;20403;-81
2022/01/23 06:43:27;;;;;;;46.80;30.07;;;-4.00;99.90;;;;;;5077578;28;20502;-79
2022/01/23 06:45:53;;;;;;;40.00;30.93;;;-4.30;99.90;;;;;;5077251;28;20582;-71
2022/01/23 06:48:18;;;;;;;42.27;29.87;;;-4.30;99.90;;;;;;5076588;28;20191;-72
2022/01/23 06:50:44;;;;;;;42.20;28.90;;;-4.20;99.90;;;;;;5076499;28;20521;-71
2022/01/23 06:53:10;;;;;;;43.87;31.60;;;-4.30;99.90;;;;;;5076078;28;20583;-71
2022/01/23 06:55:36;;;;;;;44.93;31.40;;;-4.60;99.90;;;;;;5076511;28;20156;-71
2022/01/23 06:58:01;;;;;;;38.83;28.97;;;-4.70;99.90;;;;;;5077288;28;20583;-71
2022/01/23 07:00:27;;;;;;;45.90;31.77;;;-4.90;99.90;;;;;;5079851;28;20199;-73
2022/01/23 07:02:53;;;;;;;43.77;28.77;;;-4.80;99.90;;;;;;5080029;28;20201;-70
2022/01/23 07:05:19;;;;;;;40.30;28.43;;;-4.60;99.90;;;;;;5080302;28;20163;-72
2022/01/23 07:07:44;;;;;;;44.77;30.03;;;-5.00;99.90;;;;;;5080317;28;20199;-77
2022/01/23 07:10:10;;;;;;;44.20;29.83;;;-4.90;99.90;;;;;;5080079;28;20715;-71
2022/01/23 07:12:36;;;;;;;43.03;30.57;;;-4.70;99.90;;;;;;5080845;28;20179;-74
2022/01/23 07:15:02;;;;;;;41.57;30.10;;;-4.80;99.90;;;;;;5080401;28;20167;-76
2022/01/23 07:17:28;;;;;;;49.03;32.47;;;-5.20;99.90;;;;;;5079681;28;20261;-74
2022/01/23 07:19:53;;;;;;;47.13;31.53;;;-4.70;99.90;;;;;;5080669;28;20855;-74
2022/01/23 07:22:19;;;;;;;41.77;30.03;;;-4.40;99.90;;;;;;5081065;28;20186;-73
2022/01/23 07:24:45;;;;;;;42.93;28.97;;;-4.30;99.90;;;;;;5080765;28;20175;-76
2022/01/23 07:27:18;;;;;;;40.43;29.70;;;-4.50;99.90;;;;;;5082007;28;20209;-78
2022/01/23 07:29:46;;;;;;;47.07;31.63;;;-4.50;99.90;;;;;;5080315;28;20171;-70
2022/01/23 07:32:12;;;;;;;43.53;29.00;;;-4.40;99.90;;;;;;5079373;28;20461;-74
2022/01/23 07:34:38;;;;;;;47.43;31.60;;;-4.50;99.90;;;;;;5080660;28;20395;-73
2022/01/23 07:37:04;;;;;;;39.40;28.67;;;-4.20;99.90;;;;;;5080814;28;20198;-71
2022/01/23 07:39:30;;;;;;;43.77;30.70;;;-4.20;99.90;;;;;;5079028;28;20540;-72
2022/01/23 07:41:55;;;;;;;40.37;29.20;;;-4.40;99.90;;;;;;5079619;28;20415;-75
2022/01/23 07:44:22;;;;;;;44.27;29.73;;;-3.70;99.90;;;;;;5084927;28;20269;-78
2022/01/23 07:46:48;;;;;;;40.50;28.17;;;-3.30;99.90;;;;;;5100703;28;20672;-76
2022/01/23 07:49:14;;;;;;;49.03;30.83;;;-4.20;99.90;;;;;;5099265;28;20431;-74
2022/01/23 07:51:39;;;;;;;47.50;30.50;;;-4.00;99.90;;;;;;5100367;28;20166;-72
2022/01/23 07:54:06;;;;;;;38.83;26.40;;;-4.40;99.90;;;;;;5101003;28;20591;-77
2022/01/23 07:56:32;;;;;;;38.43;29.07;;;-4.70;99.90;;;;;;5100056;28;20171;-73
2022/01/23 07:58:58;;;;;;;43.10;28.60;;;-4.70;99.90;;;;;;5099714;28;20234;-76
2022/01/23 08:01:24;;;;;;;46.50;30.40;;;-4.60;99.90;;;;;;5101450;28;20170;-81
2022/01/23 08:03:50;;;;;;;44.47;30.30;;;-4.40;99.90;;;;;;5099808;28;20167;-75
2022/01/23 08:06:17;;;;;;;48.83;30.53;;;-4.10;99.90;;;;;;5099846;28;20171;-79
2022/01/23 08:08:43;;;;;;;49.47;30.70;;;-3.40;99.90;;;;;;5100108;28;20223;-73
2022/01/23 08:11:09;;;;;;;43.30;30.30;;;-3.60;99.90;;;;;;5096530;28;20537;-71
2022/01/23 08:13:35;;;;;;;42.13;29.33;;;-3.80;99.90;;;;;;5097402;28;20170;-70
2022/01/23 08:16:01;;;;;;;44.60;33.33;;;-4.00;99.90;;;;;;5098667;28;20755;-71
2022/01/23 08:18:27;;;;;;;45.03;29.87;;;-4.50;99.90;;;;;;5097578;28;20194;-72
2022/01/23 08:20:52;;;;;;;46.03;30.90;;;-3.20;99.90;;;;;;5098513;28;20589;-72
2022/01/23 08:23:20;;;;;;;42.97;29.50;;;-4.60;99.90;;;;;;5098688;28;20501;-77
2022/01/23 08:25:46;;;;;;;43.70;29.70;;;-4.90;99.90;;;;;;5097853;28;20181;-70
2022/01/23 08:28:12;;;;;;;47.67;31.87;;;-4.70;99.90;;;;;;5098007;28;20198;-75
2022/01/23 08:30:38;;;;;;;39.63;27.80;;;-4.60;99.90;;;;;;5096924;28;20574;-74
2022/01/23 08:33:04;;;;;;;42.57;30.60;;;-4.40;99.90;;;;;;5097883;28;20171;-72
2022/01/23 08:35:30;;;;;;;43.33;29.13;;;-3.50;99.90;;;;;;5098802;28;20171;-81
2022/01/23 08:37:56;;;;;;;48.40;31.33;;;-2.20;99.90;;;;;;5098901;28;20182;-75
2022/01/23 08:40:34;;;;;;;45.00;29.60;;;-2.50;99.90;;;;;;5098542;28;20178;-75
2022/01/23 08:43:00;;;;;;;44.37;30.37;;;-4.00;99.90;;;;;;5097613;28;20468;-75
2022/01/23 08:45:26;;;;;;;42.50;28.53;;;-3.20;99.90;;;;;;5098309;28;20167;-73
2022/01/23 08:47:52;;;;;;;39.73;28.73;;;-3.90;99.90;;;;;;5098346;28;20244;-71
2022/01/23 08:50:18;;;;;;;43.77;29.50;;;-4.20;99.90;;;;;;5098769;28;20163;-75
2022/01/23 08:52:43;;;;;;;40.47;26.93;;;-4.30;99.90;;;;;;5096277;28;20186;-71
2022/01/23 08:55:11;;;;;;;37.53;28.07;;;-3.80;99.90;;;;;;5084848;28;20171;-75
2022/01/23 08:57:37;;;;;;;38.87;27.17;;;-3.50;99.90;;;;;;5094196;28;20178;-75
2022/01/23 09:00:05;;;;;;;37.87;28.97;;;-4.10;99.90;;;;;;5098016;28;20472;-70
2022/01/23 09:02:31;;;;;;;42.73;28.93;;;-4.20;99.90;;;;;;5098145;28;20467;-74
2022/01/23 09:04:57;;;;;;;44.53;27.47;;;-3.90;99.90;;;;;;5098253;28;20410;-77
2022/01/23 09:07:22;;;;;;;40.03;29.00;;;-4.10;99.90;;;;;;5098074;28;20552;-72
2022/01/23 09:09:48;;;;;;;41.63;27.83;;;-4.30;99.90;;;;;;5096721;28;20183;-70
2022/01/23 09:13:04;;;;;;;39.00;27.07;;;-4.30;99.90;;;;;;5098542;28;20198;-74
2022/01/23 09:15:03;;;;;;;39.40;27.90;;;-3.80;99.90;;;;;;5092987;28;20241;-79
2022/01/23 09:17:28;;;;;;;43.73;28.27;;;-2.70;99.90;;;;;;5089015;28;20602;-78
2022/01/23 09:19:55;;;;;;;41.03;30.47;;;-5.20;99.90;;;;;;5084176;28;20178;-76
2022/01/23 09:22:21;;;;;;;39.70;28.13;;;-2.70;99.90;;;;;;5077448;28;20186;-73
2022/01/23 09:24:47;;;;;;;41.47;28.37;;;-3.30;99.90;;;;;;5080136;28;20174;-80
2022/01/23 09:27:18;;;;;;;43.63;27.93;;;-4.10;99.90;;;;;;5090780;28;20204;-72
2022/01/23 09:29:48;;;;;;;40.50;28.23;;;-2.60;99.90;;;;;;5088831;28;20616;-72
2022/01/23 09:32:16;;;;;;;41.97;27.43;;;-4.00;99.90;;;;;;5079609;28;20182;-72
2022/01/23 09:34:43;;;;;;;36.30;26.03;;;-4.20;99.90;;;;;;5078771;28;20250;-77
2022/01/23 09:37:14;;;;;;;36.50;26.67;;;-4.10;99.90;;;;;;5089282;28;20590;-73
2022/01/23 09:39:42;;;;;;;34.00;26.00;;;-3.90;99.90;;;;;;5074787;28;20233;-73
2022/01/23 09:42:26;;;;;;;36.53;27.40;;;-3.80;99.90;;;;;;5075606;28;20199;-76
2022/01/23 09:44:57;;;;;;;39.53;27.87;;;-4.60;99.90;;;;;;5092315;28;20178;-72
2022/01/23 09:47:24;;;;;;;39.07;26.67;;;-5.30;99.90;;;;;;5085031;28;20200;-74
2022/01/23 09:49:52;;;;;;;38.50;26.17;;;-5.20;99.90;;;;;;5092896;28;20235;-77
2022/01/23 09:52:19;;;;;;;34.30;25.47;;;-5.20;99.90;;;;;;5088111;28;20174;-74
2022/01/23 09:54:55;;;;;;;42.30;26.90;;;-3.50;99.90;;;;;;5084613;28;20175;-74
2022/01/23 09:57:24;;;;;;;38.23;25.70;;;-5.00;99.90;;;;;;5092509;28;20174;-75
2022/01/23 09:59:54;;;;;;;40.00;28.20;;;-5.00;99.90;;;;;;5076092;28;20269;-75
2022/01/23 10:02:23;;;;;;;36.53;26.93;;;-5.00;99.90;;;;;;5090875;28;20186;-72
2022/01/23 10:04:53;;;;;;;38.53;27.27;;;-4.90;99.90;;;;;;5088924;28;20171;-72
2022/01/23 10:07:23;;;;;;;36.70;26.97;;;-4.60;99.90;;;;;;5084419;28;20198;-75
2022/01/23 10:09:58;;;;;;;36.67;26.77;;;-5.30;99.90;;;;;;5092665;28;20540;-72
2022/01/23 10:12:26;;;;;;;32.43;24.77;;;-3.60;99.90;;;;;;5080547;28;20170;-72
2022/01/23 10:14:56;;;;;;;37.20;26.50;;;-3.90;99.90;;;;;;5073328;28;20187;-73
2022/01/23 10:17:22;;;;;;;31.47;25.10;;;-4.80;99.90;;;;;;5076628;28;20579;-73
2022/01/23 10:19:48;;;;;;;34.27;26.57;;;-5.10;99.90;;;;;;5074533;28;20187;-72
2022/01/23 10:22:15;;;;;;;35.80;25.03;;;-5.20;99.90;;;;;;5073907;28;20185;-72
2022/01/23 10:24:41;;;;;;;35.00;27.10;;;-5.20;99.90;;;;;;5088461;28;20174;-72
2022/01/23 10:27:07;;;;;;;33.23;24.17;;;-5.10;99.90;;;;;;5092194;28;20493;-71
2022/01/23 10:29:37;;;;;;;36.27;24.00;;;-5.50;99.90;;;;;;5084932;28;20178;-72
2022/01/23 10:32:21;;;;;;;37.30;24.53;;;-4.80;99.90;;;;;;5092311;28;20257;-74
2022/01/23 10:34:59;;;;;;;33.60;24.43;;;-5.20;99.90;;;;;;5097554;28;20194;-74
2022/01/23 10:37:26;;;;;;;35.80;23.90;;;-3.80;99.90;;;;;;5083494;28;20187;-73
2022/01/23 10:39:53;;;;;;;28.60;20.93;;;-5.20;99.90;;;;;;5078808;28;20206;-76
2022/01/23 10:50:46;;;;;;;29.70;22.07;;;-5.00;99.90;;;;;;5084732;28;20163;-73
2022/01/23 10:53:11;;;;;;;28.67;22.77;;;-5.30;99.90;;;;;;5091620;28;20221;-73
2022/01/23 10:55:37;;;;;;;29.33;21.20;;;-5.20;99.90;;;;;;5088893;28;20174;-76
2022/01/23 10:58:06;;;;;;;30.67;21.47;;;-5.70;99.90;;;;;;5082158;28;20244;-72
2022/01/23 11:00:39;;;;;;;28.83;22.10;;;-5.30;99.90;;;;;;5082774;28;20589;-73
2022/01/23 11:03:17;;;;;;;30.20;22.13;;;-6.00;99.90;;;;;;5090371;28;20166;-76
2022/01/23 11:05:44;;;;;;;28.37;22.33;;;-5.20;99.90;;;;;;5088445;28;20595;-78
2022/01/23 11:08:28;;;;;;;32.23;21.53;;;-5.40;99.90;;;;;;5087650;28;20661;-74
2022/01/23 11:10:59;;;;;;;23.73;18.60;;;-5.50;99.90;;;;;;5098482;28;20220;-75
2022/01/23 11:19:20;;;;;;;32.97;20.27;;;-5.10;99.90;;;;;;5099506;28;20228;-74
2022/01/23 11:21:46;;;;;;;29.80;23.17;;;-4.60;99.90;;;;;;5100933;28;20159;-83
2022/01/23 11:24:13;;;;;;;29.73;21.40;;;-4.80;99.90;;;;;;5097838;28;20197;-74
2022/01/23 11:26:39;;;;;;;35.83;24.53;;;-5.50;99.90;;;;;;5098790;28;20314;-77
2022/01/23 11:29:14;;;;;;;29.97;20.13;;;-5.40;99.90;;;;;;5098323;28;20215;-75
2022/01/23 11:31:43;;;;;;;27.60;21.43;;;-2.60;99.90;;;;;;5099377;28;20166;-77
2022/01/23 11:34:12;;;;;;;22.87;18.83;;;-3.90;99.90;;;;;;5098735;28;20163;-78
2022/01/23 11:36:37;;;;;;;29.00;20.87;;;-5.10;99.90;;;;;;5098628;28;20171;-72
2022/01/23 11:39:12;;;;;;;21.13;18.13;;;-5.10;99.90;;;;;;5098482;28;20206;-70
2022/01/23 11:53:47;;;;;;;23.73;16.83;;;-5.00;99.90;;;;;;5084503;28;20271;-75
2022/01/23 11:56:36;;;;;;;20.30;17.07;;;-5.00;99.90;;;;;;5095832;28;20170;-80
2022/01/23 11:59:16;;;;;;;25.00;18.43;;;-4.80;99.90;;;;;;5093684;28;20167;-82
2022/01/23 12:01:45;;;;;;;29.57;19.10;;;-5.10;99.90;;;;;;5098115;28;20175;-78
2022/01/23 12:04:21;;;;;;;27.30;20.23;;;-4.90;99.90;;;;;;5101002;28;20171;-77
2022/01/23 12:07:15;;;;;;;22.10;16.53;;;-4.90;99.90;;;;;;5099004;28;20214;-82
2022/01/23 12:10:02;;;;;;;25.97;18.47;;;-5.20;99.90;;;;;;5099875;28;20578;-77
2022/01/23 12:12:40;;;;;;;22.40;16.90;;;-3.60;99.90;;;;;;5096097;28;20579;-78
2022/01/23 12:18:14;;;;;;;21.63;17.20;;;-4.50;99.90;;;;;;5100119;28;20201;-89
2022/01/23 12:20:42;;;;;;;24.37;18.80;;;-4.60;99.90;;;;;;5099335;28;20174;-80
2022/01/23 12:23:09;;;;;;;22.80;18.57;;;-4.80;99.90;;;;;;5098921;28;20170;-78
2022/01/23 12:25:56;;;;;;;23.53;17.43;;;-4.90;99.90;;;;;;5097931;28;20171;-78
2022/01/23 12:28:31;;;;;;;19.43;15.40;;;-3.20;99.90;;;;;;5086106;28;20225;-75
2022/01/23 12:31:12;;;;;;;26.77;19.23;;;-4.80;99.90;;;;;;5084147;28;20171;-80
2022/01/23 12:33:49;;;;;;;24.53;18.20;;;-5.10;99.90;;;;;;5077656;28;20248;-81
2022/01/23 12:36:14;;;;;;;21.93;17.63;;;-5.30;99.90;;;;;;5077375;28;20210;-81
2022/01/23 12:38:43;;;;;;;26.23;16.67;;;-4.40;99.90;;;;;;5078285;28;20195;-83
2022/01/23 12:41:31;;;;;;;21.40;17.30;;;-5.50;99.90;;;;;;5078503;28;20181;-78
2022/01/23 12:44:22;;;;;;;24.77;16.90;;;-5.30;99.90;;;;;;5077354;28;20261;-72
2022/01/23 12:46:51;;;;;;;20.80;16.60;;;-5.30;99.90;;;;;;5077713;28;20188;-82
2022/01/23 12:49:35;;;;;;;22.67;17.73;;;-5.10;99.90;;;;;;5076927;28;20160;-80
2022/01/23 12:52:09;;;;;;;21.70;17.17;;;-5.40;99.90;;;;;;5079234;28;20171;-86
2022/01/23 12:54:47;;;;;;;23.93;17.90;;;-4.80;99.90;;;;;;5080148;28;20185;-85
2022/01/23 12:57:15;;;;;;;21.17;16.37;;;-4.80;99.90;;;;;;5080069;28;20163;-86
2022/01/23 12:59:43;;;;;;;24.03;18.53;;;-4.90;99.90;;;;;;5078852;28;20184;-84
2022/01/23 13:02:16;;;;;;;22.87;17.43;;;-4.20;99.90;;;;;;5081498;28;20233;-82
2022/01/23 13:04:49;;;;;;;22.83;16.10;;;-4.70;99.90;;;;;;5081369;28;20248;-76
2022/01/23 13:07:24;;;;;;;19.80;15.17;;;-4.90;99.90;;;;;;5079557;28;20198;-76
2022/01/23 13:10:04;;;;;;;21.30;15.17;;;-3.50;99.90;;;;;;5080399;28;20187;-86
2022/01/23 13:12:47;;;;;;;18.40;13.67;;;-4.60;99.90;;;;;;5084987;28;20236;-78
2022/01/23 13:18:12;;;;;;;16.90;13.57;;;-4.70;99.90;;;;;;5082969;28;20189;-79
2022/01/23 13:31:50;;;;;;;19.57;14.77;;;-3.50;99.90;;;;;;5077476;28;20149;-86
2022/01/23 13:34:41;;;;;;;21.17;17.07;;;-4.80;99.90;;;;;;5077850;28;20629;-85
2022/01/23 13:37:15;;;;;;;16.93;14.87;;;-4.60;99.90;;;;;;5077724;28;20222;-82
2022/01/23 13:39:55;;;;;;;22.10;15.43;;;-5.00;99.90;;;;;;5077151;28;20217;-85
2022/01/23 13:42:45;;;;;;;20.23;16.87;;;-5.20;99.90;;;;;;5076637;28;20256;-78
2022/01/23 13:59:32;;;;;;;20.77;15.90;;;-5.10;99.90;;;;;;5080551;28;20606;-86
2022/01/23 14:02:14;;;;;;;24.20;18.57;;;-4.20;99.90;;;;;;5080369;28;20642;-82
2022/01/23 14:04:44;;;;;;;21.80;17.67;;;-5.00;99.90;;;;;;5079178;28;20171;-70
2022/01/23 14:07:10;;;;;;;23.83;18.10;;;-4.00;99.90;;;;;;5079060;28;20286;-81
2022/01/23 14:09:43;;;;;;;21.17;15.60;;;-4.90;99.90;;;;;;5079141;28;20190;-77
2022/01/23 14:12:19;;;;;;;20.60;15.57;;;-5.10;99.90;;;;;;5079318;28;20526;-84
2022/01/23 14:14:55;;;;;;;21.23;15.70;;;-5.30;99.90;;;;;;5080628;28;20167;-81
2022/01/23 14:17:25;;;;;;;27.17;17.43;;;-4.60;99.90;;;;;;5082024;28;20178;-84
2022/01/23 14:20:04;;;;;;;20.57;16.20;;;-5.10;99.90;;;;;;5090126;28;20182;-82
2022/01/23 14:22:32;;;;;;;23.07;17.33;;;-4.30;99.90;;;;;;5090565;28;20496;-70
2022/01/23 14:25:18;;;;;;;23.13;16.67;;;-5.50;99.90;;;;;;5090720;28;20174;-70
2022/01/23 14:28:07;;;;;;;23.00;16.87;;;-5.30;99.90;;;;;;5094921;28;20200;-73
2022/01/23 14:30:40;;;;;;;24.13;17.37;;;-5.20;99.90;;;;;;5094815;28;20604;-72
2022/01/23 14:33:25;;;;;;;25.17;16.77;;;-4.90;99.90;;;;;;5095847;28;20559;-72
2022/01/23 14:35:51;;;;;;;20.73;16.43;;;-4.80;99.90;;;;;;5097050;28;20183;-82
2022/01/23 14:38:26;;;;;;;21.97;18.53;;;-5.00;99.90;;;;;;5098527;28;20235;-73
2022/01/23 14:41:03;;;;;;;22.67;17.83;;;-4.80;99.90;;;;;;5094474;28;20255;-80
2022/01/23 14:43:42;;;;;;;27.90;18.17;;;-4.60;99.90;;;;;;5093975;28;20175;-80
2022/01/23 14:46:12;;;;;;;18.53;16.17;;;-4.30;99.90;;;;;;5090825;28;20227;-76
2022/01/23 14:48:48;;;;;;;21.53;17.13;;;-3.90;99.90;;;;;;5083835;28;20211;-85
2022/01/23 14:51:22;;;;;;;24.83;18.97;;;-3.70;99.90;;;;;;5088108;28;20182;-86
2022/01/23 14:53:49;;;;;;;28.43;19.90;;;-3.80;99.90;;;;;;5079143;28;20181;-81
2022/01/23 14:56:15;;;;;;;26.93;16.93;;;-4.50;99.90;;;;;;5085092;28;20167;-86
2022/01/23 14:58:43;;;;;;;29.87;19.20;;;-3.50;99.90;;;;;;5098309;28;20179;-85
2022/01/23 15:01:12;;;;;;;26.80;19.90;;;-3.40;99.90;;;;;;5098698;28;20278;-80
2022/01/23 15:03:41;;;;;;;13.30;11.90;;;-3.50;99.90;;;;;;5087308;28;20188;-77
2022/01/23 15:06:07;;;;;;;17.20;12.63;;;-3.00;99.90;;;;;;5081982;28;20196;-78
2022/01/23 15:08:33;;;;;;;20.90;13.93;;;-3.50;99.90;;;;;;5077521;28;20207;-77
2022/01/23 15:11:00;;;;;;;16.10;13.67;;;-3.80;99.90;;;;;;5079471;28;20256;-91
2022/01/23 15:13:28;;;;;;;16.93;12.53;;;-3.70;99.90;;;;;;5095766;28;20195;-88
2022/01/23 15:15:55;;;;;;;14.17;11.40;;;-3.70;99.90;;;;;;5089661;28;20900;-80
2022/01/23 15:18:21;;;;;;;14.40;11.17;;;-3.80;99.90;;;;;;5088510;28;20203;-72
2022/01/23 15:20:49;;;;;;;16.73;12.40;;;-3.70;99.90;;;;;;5094763;28;20459;-88
2022/01/23 15:23:16;;;;;;;18.07;12.40;;;-2.40;99.90;;;;;;5081598;28;20391;-89
2022/01/23 15:25:43;;;;;;;20.90;14.37;;;-3.70;99.90;;;;;;5083449;28;20217;-78
2022/01/23 15:28:09;;;;;;;19.60;14.43;;;-3.70;99.90;;;;;;5082357;28;20214;-88
2022/01/23 15:30:36;;;;;;;20.70;13.20;;;-3.70;99.90;;;;;;5085551;28;20730;-89
2022/01/23 15:33:04;;;;;;;16.10;12.63;;;-3.40;99.90;;;;;;5103532;28;20252;-88
2022/01/23 15:35:30;;;;;;;18.70;12.83;;;-3.70;99.90;;;;;;5097899;28;20269;-72
2022/01/23 15:37:56;;;;;;;17.90;12.80;;;-3.60;99.90;;;;;;5101280;28;20183;-72
2022/01/23 15:40:23;;;;;;;19.40;11.90;;;-3.50;99.90;;;;;;5100943;28;20186;-72
2022/01/23 15:42:51;;;;;;;19.03;14.27;;;-3.20;99.90;;;;;;5100216;28;20170;-76
2022/01/23 15:45:18;;;;;;;11.93;9.67;;;-3.70;99.90;;;;;;5099544;28;20261;-71
2022/01/23 15:47:44;;;;;;;11.77;9.87;;;-4.00;99.90;;;;;;5099763;28;20202;-73
2022/01/23 15:50:12;;;;;;;13.43;11.03;;;-3.50;99.90;;;;;;5104408;28;20197;-82
2022/01/23 15:52:39;;;;;;;18.27;12.97;;;-3.60;99.90;;;;;;5101671;28;20199;-74
2022/01/23 15:55:10;;;;;;;16.63;11.97;;;-3.40;99.90;;;;;;5101198;28;20582;-81
2022/01/23 15:57:38;;;;;;;18.10;13.30;;;-3.50;99.90;;;;;;5098040;28;20200;-89
2022/01/23 16:00:10;;;;;;;21.17;17.53;;;-2.70;99.90;;;;;;5103280;28;20178;-83
2022/01/23 16:02:35;;;;;;;20.30;14.83;;;-4.90;99.90;;;;;;5102937;28;20170;-82
2022/01/23 16:05:03;;;;;;;17.13;14.20;;;-3.90;99.90;;;;;;5089666;28;20261;-76
2022/01/23 16:07:29;;;;;;;18.23;13.87;;;-3.70;99.90;;;;;;5098155;28;20205;-71
2022/01/23 16:09:55;;;;;;;16.47;14.47;;;-3.90;99.90;;;;;;5085821;28;20187;-81
2022/01/23 16:12:21;;;;;;;16.47;14.57;;;-3.80;99.90;;;;;;5099261;28;20227;-82
2022/01/23 16:14:48;;;;;;;15.13;12.40;;;-4.00;99.90;;;;;;5089687;28;20182;-77